Time;durP1;ratioP1;P1;durP2;ratioP2;P2;SDS_P1;SDS_P2;PMS_P1;PMS_P2;Temp;Humidity;BMP_temperature;BMP_pressure;BME280_temperature;BME280_humidity;BME280_pressure;Samples;Min_cycle;Max_cycle;Signal;HPM_P1;HPM_P2
2022/10/18 00:02:43;;;;;;;6.38;3.58;;;13.80;99.90;;;;;;20593988;28;20051;-83
2022/10/18 00:12:44;;;;;;;4.68;2.67;;;13.70;99.90;;;;;;20557320;28;20167;-83
2022/10/18 00:22:45;;;;;;;6.10;2.65;;;13.70;99.90;;;;;;20615910;28;20038;-83
2022/10/18 00:32:46;;;;;;;6.03;2.17;;;13.60;99.90;;;;;;20599429;28;20055;-83
2022/10/18 00:42:47;;;;;;;5.47;2.67;;;13.50;99.90;;;;;;20556336;28;20079;-82
2022/10/18 00:52:57;;;;;;;5.68;2.45;;;13.40;99.90;;;;;;20603854;28;20049;-83
2022/10/18 01:02:58;;;;;;;3.67;2.05;;;13.30;99.90;;;;;;20609503;28;20038;-83
2022/10/18 01:13:20;;;;;;;5.82;3.08;;;13.20;99.90;;;;;;20571670;28;20106;-83
2022/10/18 01:23:56;;;;;;;3.47;2.03;;;13.20;99.90;;;;;;20618354;28;20657;-83
2022/10/18 01:34:01;;;;;;;5.28;3.33;;;13.10;99.90;;;;;;20616996;28;20827;-83
2022/10/18 01:44:05;;;;;;;3.83;1.98;;;13.00;99.90;;;;;;20619652;28;20563;-83
2022/10/18 01:54:06;;;;;;;4.28;1.95;;;13.00;99.90;;;;;;20602976;28;20442;-85
2022/10/18 02:04:41;;;;;;;3.70;1.83;;;13.10;99.90;;;;;;20624191;28;20056;-84
2022/10/18 02:14:43;;;;;;;4.28;2.50;;;13.30;99.90;;;;;;20571663;28;21685;-85
2022/10/18 02:24:50;;;;;;;3.13;1.85;;;13.30;99.90;;;;;;20620197;28;20170;-84
2022/10/18 02:34:59;;;;;;;3.20;1.67;;;13.20;99.90;;;;;;20603307;28;20321;-84
2022/10/18 02:45:00;;;;;;;3.58;1.50;;;13.00;99.90;;;;;;20603933;28;20093;-84
2022/10/18 02:55:01;;;;;;;2.97;1.65;;;12.80;99.90;;;;;;20609583;28;20196;-84
2022/10/18 03:05:03;;;;;;;1.95;1.30;;;12.70;99.90;;;;;;20553737;28;20034;-84
2022/10/18 03:15:04;;;;;;;2.28;1.20;;;12.50;99.90;;;;;;20601046;28;20134;-85
2022/10/18 03:25:05;;;;;;;2.08;1.30;;;12.40;99.90;;;;;;20619501;28;20038;-84
2022/10/18 03:35:08;;;;;;;3.55;1.73;;;12.30;99.90;;;;;;20574902;28;20050;-84
2022/10/18 03:45:09;;;;;;;7.30;2.95;;;12.10;99.90;;;;;;20566248;28;20127;-84
2022/10/18 03:55:10;;;;;;;2.67;1.60;;;12.10;99.90;;;;;;20577953;28;20046;-84
2022/10/18 04:05:11;;;;;;;2.28;1.20;;;11.90;99.90;;;;;;20542811;28;20034;-83
2022/10/18 04:15:12;;;;;;;2.78;1.17;;;11.80;99.90;;;;;;20582537;28;20095;-84
2022/10/18 04:25:13;;;;;;;1.85;1.02;;;11.70;99.90;;;;;;20593972;28;20041;-84
2022/10/18 04:35:15;;;;;;;3.85;2.08;;;11.60;99.90;;;;;;20589032;28;20711;-82
2022/10/18 04:45:16;;;;;;;3.08;1.60;;;11.50;99.90;;;;;;20636419;28;20502;-83
2022/10/18 04:55:17;;;;;;;4.80;1.92;;;11.50;99.90;;;;;;20553219;28;20109;-83
2022/10/18 05:05:18;;;;;;;5.07;1.95;;;11.50;99.90;;;;;;20568846;28;20048;-84
2022/10/18 05:15:18;;;;;;;3.67;2.15;;;11.60;99.90;;;;;;20588219;28;20058;-84
2022/10/18 05:25:19;;;;;;;2.85;1.25;;;11.70;99.90;;;;;;20579101;28;20069;-84
2022/10/18 05:35:20;;;;;;;1.70;1.02;;;11.80;99.90;;;;;;20576750;28;20402;-83
2022/10/18 05:45:21;;;;;;;2.28;1.25;;;11.80;99.90;;;;;;20554025;28;20062;-84
2022/10/18 05:55:23;;;;;;;2.03;1.02;;;11.80;99.90;;;;;;20598271;28;20041;-84
2022/10/18 06:05:24;;;;;;;1.40;0.60;;;11.80;99.90;;;;;;20609440;28;20246;-83
2022/10/18 06:15:25;;;;;;;4.30;2.50;;;11.80;99.90;;;;;;20556775;28;20033;-84
2022/10/18 06:25:26;;;;;;;2.92;0.77;;;11.80;99.90;;;;;;20590754;28;20137;-83
2022/10/18 06:35:27;;;;;;;1.30;0.65;;;11.70;99.90;;;;;;20604077;28;21523;-83
2022/10/18 06:45:28;;;;;;;1.00;0.60;;;11.60;99.90;;;;;;20598318;28;20105;-83
2022/10/18 06:55:29;;;;;;;1.40;0.70;;;11.50;99.90;;;;;;20561104;28;20059;-84
2022/10/18 07:05:31;;;;;;;1.85;0.90;;;11.40;99.90;;;;;;20575981;28;20078;-83
2022/10/18 07:15:32;;;;;;;1.63;0.60;;;11.40;99.90;;;;;;20547548;28;20153;-83
2022/10/18 07:25:34;;;;;;;1.25;0.40;;;11.40;99.90;;;;;;20618351;28;20058;-84
2022/10/18 07:35:35;;;;;;;0.80;0.45;;;11.30;99.90;;;;;;20571946;28;20053;-83
2022/10/18 07:45:36;;;;;;;1.20;0.40;;;11.20;99.90;;;;;;20580361;28;20057;-82
2022/10/18 07:55:37;;;;;;;1.15;0.77;;;11.40;99.90;;;;;;20578649;28;20403;-86
2022/10/18 08:05:38;;;;;;;3.00;0.90;;;11.60;99.90;;;;;;20564864;28;20081;-83
2022/10/18 08:15:39;;;;;;;2.20;1.40;;;11.80;99.90;;;;;;20566399;28;20131;-82
2022/10/18 08:25:40;;;;;;;6.78;1.75;;;12.20;99.90;;;;;;20630564;28;20140;-83
2022/10/18 08:35:41;;;;;;;3.95;2.13;;;12.80;99.90;;;;;;20613697;28;20910;-82
2022/10/18 08:45:43;;;;;;;4.85;2.00;;;13.30;99.90;;;;;;20594689;28;20054;-83
2022/10/18 08:55:46;;;;;;;3.53;1.88;;;13.70;99.90;;;;;;20612564;28;20080;-83
2022/10/18 09:06:02;;;;;;;3.95;2.10;;;14.00;99.90;;;;;;20605225;28;20097;-81
2022/10/18 09:16:07;;;;;;;3.63;1.90;;;14.40;99.90;;;;;;20620548;28;20140;-83
2022/10/18 09:26:16;;;;;;;2.53;1.75;;;14.50;99.90;;;;;;20625147;28;20146;-80
2022/10/18 09:36:21;;;;;;;2.42;0.63;;;14.70;99.90;;;;;;20621855;28;21973;-81
2022/10/18 09:46:28;;;;;;;2.08;0.70;;;14.90;99.90;;;;;;20581945;28;20069;-80
2022/10/18 09:56:53;;;;;;;1.70;0.47;;;15.10;99.90;;;;;;20618410;28;21483;-80
2022/10/18 10:06:56;;;;;;;2.28;0.38;;;15.40;99.90;;;;;;20563395;28;20054;-81
2022/10/18 10:17:19;;;;;;;5.15;0.90;;;15.50;99.90;;;;;;20642773;28;20046;-81
2022/10/18 10:27:29;;;;;;;4.55;1.20;;;15.50;99.90;;;;;;20682530;28;20641;-81
2022/10/18 10:37:33;;;;;;;5.00;1.25;;;15.70;99.90;;;;;;20681362;28;20704;-80
2022/10/18 10:47:35;;;;;;;1.25;0.30;;;16.10;99.90;;;;;;20602840;28;20045;-80
2022/10/18 10:57:37;;;;;;;0.98;0.32;;;16.60;99.90;;;;;;20597821;28;20380;-80
2022/10/18 11:07:45;;;;;;;2.65;0.30;;;17.10;99.90;;;;;;20598393;28;20057;-81
2022/10/18 11:17:53;;;;;;;;;;;18.10;99.90;;;;;;20574279;28;23008;-81
2022/10/18 11:28:00;;;;;;;3.00;0.40;;;19.00;99.90;;;;;;20567497;28;20364;-80
2022/10/18 11:38:35;;;;;;;2.90;0.40;;;19.50;99.90;;;;;;20614957;28;20046;-81
2022/10/18 11:49:08;;;;;;;3.20;0.98;;;19.60;99.90;;;;;;20596796;28;20635;-80
2022/10/18 11:59:18;;;;;;;0.98;0.30;;;19.80;99.90;;;;;;20601611;28;20062;-80
2022/10/18 12:09:42;;;;;;;0.40;0.13;;;20.00;99.90;;;;;;20642901;28;20644;-80
2022/10/18 12:19:44;;;;;;;1.00;0.20;;;20.50;99.90;;;;;;20576631;28;20737;-80
2022/10/18 12:29:56;;;;;;;0.57;0.20;;;20.80;99.90;;;;;;20605640;28;20534;-80
2022/10/18 12:40:00;;;;;;;0.50;0.10;;;21.00;99.90;;;;;;20579686;28;20600;-80
2022/10/18 12:50:05;;;;;;;1.67;0.30;;;20.60;99.90;;;;;;20596325;28;20200;-80
2022/10/18 13:00:29;;;;;;;0.95;0.30;;;21.20;99.90;;;;;;20598744;28;20623;-80
2022/10/18 13:10:35;;;;;;;3.47;0.63;;;21.80;99.70;;;;;;20583035;28;20784;-80
2022/10/18 13:20:59;;;;;;;0.52;0.20;;;22.60;99.70;;;;;;20595605;28;20094;-80
2022/10/18 13:31:20;;;;;;;1.00;0.20;;;22.20;99.70;;;;;;20624114;28;20089;-80
2022/10/18 13:41:27;;;;;;;0.45;0.10;;;21.90;97.20;;;;;;20643490;28;20076;-80
2022/10/18 13:51:31;;;;;;;;;;;22.10;95.00;;;;;;20596461;28;20274;-79
2022/10/18 14:01:48;;;;;;;1.98;0.45;;;22.50;97.10;;;;;;20583531;28;19999;-80
2022/10/18 14:12:00;;;;;;;0.68;0.20;;;22.40;96.10;;;;;;20568465;28;20512;-80
2022/10/18 14:22:15;;;;;;;17.67;0.55;;;22.20;95.40;;;;;;20604405;28;20081;-80
2022/10/18 14:32:35;;;;;;;0.32;0.10;;;22.30;97.00;;;;;;20607883;28;20879;-79
2022/10/18 14:42:36;;;;;;;1.70;0.82;;;21.30;97.70;;;;;;20584957;28;20336;-79
2022/10/18 14:52:37;;;;;;;3.83;0.95;;;20.20;99.90;;;;;;20611245;28;20043;-80
2022/10/18 15:02:38;;;;;;;0.40;0.22;;;19.40;99.90;;;;;;20635740;28;20054;-80
2022/10/18 15:12:41;;;;;;;4.40;0.40;;;18.50;99.90;;;;;;20573607;28;20069;-80
2022/10/18 15:22:42;;;;;;;1.63;0.20;;;17.90;99.90;;;;;;20577321;28;21808;-80
2022/10/18 15:32:49;;;;;;;0.80;0.30;;;17.40;99.90;;;;;;20537548;28;20149;-80
2022/10/18 15:42:53;;;;;;;1.35;0.65;;;16.90;99.90;;;;;;20577163;28;20576;-81
2022/10/18 15:52:54;;;;;;;2.90;0.50;;;16.50;99.90;;;;;;20606914;28;20114;-81
2022/10/18 16:02:55;;;;;;;1.55;0.50;;;16.20;99.90;;;;;;20682492;28;20042;-81
2022/10/18 16:12:56;;;;;;;5.03;0.85;;;15.90;99.90;;;;;;20631528;28;20047;-82
2022/10/18 16:22:57;;;;;;;5.20;0.35;;;15.80;99.90;;;;;;20628977;28;20048;-83
2022/10/18 16:32:58;;;;;;;8.05;1.38;;;15.60;99.90;;;;;;20589352;28;20058;-81
2022/10/18 16:42:59;;;;;;;3.20;0.20;;;15.30;99.90;;;;;;20556644;28;20051;-81
2022/10/18 16:53:00;;;;;;;1.13;0.43;;;14.80;99.90;;;;;;20594759;28;20396;-81
2022/10/18 17:03:01;;;;;;;1.30;0.28;;;14.30;99.90;;;;;;20577147;28;20672;-81
2022/10/18 17:13:02;;;;;;;0.15;0.10;;;13.90;99.90;;;;;;20587975;28;20052;-81
2022/10/18 17:23:03;;;;;;;2.28;0.50;;;13.70;99.90;;;;;;20586350;28;20042;-81
2022/10/18 17:33:05;;;;;;;1.98;0.52;;;13.40;99.90;;;;;;20547714;28;20177;-80
2022/10/18 17:43:06;;;;;;;1.65;0.50;;;13.20;99.90;;;;;;20586291;28;20925;-81
2022/10/18 17:53:08;;;;;;;2.22;1.20;;;13.20;99.90;;;;;;20612495;28;20515;-83
2022/10/18 18:03:09;;;;;;;2.10;0.70;;;13.10;99.90;;;;;;20590696;28;20145;-82
2022/10/18 18:13:10;;;;;;;2.03;1.13;;;12.80;99.90;;;;;;20628736;28;20052;-82
2022/10/18 18:23:11;;;;;;;2.30;0.52;;;12.40;99.90;;;;;;20618212;28;20040;-83
2022/10/18 18:33:12;;;;;;;0.80;0.45;;;12.30;99.90;;;;;;20644138;28;20046;-80
2022/10/18 18:43:13;;;;;;;1.20;0.50;;;12.20;99.90;;;;;;20589381;28;20052;-80
2022/10/18 18:53:15;;;;;;;1.20;0.40;;;11.90;99.90;;;;;;20612713;28;20783;-80
2022/10/18 19:03:15;;;;;;;1.63;0.60;;;11.60;99.90;;;;;;20582125;28;21910;-81
2022/10/18 19:13:18;;;;;;;1.50;0.60;;;11.70;99.90;;;;;;20555709;28;20050;-84
2022/10/18 19:23:19;;;;;;;1.70;0.70;;;11.60;99.90;;;;;;20598400;28;20091;-81
2022/10/18 19:33:21;;;;;;;3.25;1.17;;;11.40;99.90;;;;;;20602519;28;20051;-80
2022/10/18 19:43:22;;;;;;;2.08;0.85;;;11.40;99.90;;;;;;20552670;28;20757;-81
2022/10/18 19:53:23;;;;;;;2.75;1.55;;;11.20;99.90;;;;;;20559076;28;20256;-81
2022/10/18 20:03:24;;;;;;;2.55;1.23;;;11.00;99.90;;;;;;20570522;28;20421;-80
2022/10/18 20:13:25;;;;;;;4.72;1.35;;;10.90;99.90;;;;;;20546820;28;20110;-81
2022/10/18 20:23:26;;;;;;;2.30;0.73;;;10.80;99.90;;;;;;20544452;28;20447;-82
2022/10/18 20:33:27;;;;;;;1.70;0.80;;;10.70;99.90;;;;;;20522003;28;20675;-82
2022/10/18 20:43:28;;;;;;;2.25;0.70;;;10.50;99.90;;;;;;20576286;28;20070;-81
2022/10/18 20:53:29;;;;;;;3.08;1.38;;;10.50;99.90;;;;;;20608239;28;20050;-82
2022/10/18 21:03:30;;;;;;;1.88;0.77;;;10.50;99.90;;;;;;20620733;28;20046;-82
2022/10/18 21:13:32;;;;;;;2.58;1.42;;;10.30;99.90;;;;;;20600648;28;20353;-82
2022/10/18 21:23:33;;;;;;;3.08;1.20;;;10.10;99.90;;;;;;20579690;28;20044;-81
2022/10/18 21:33:34;;;;;;;2.92;1.00;;;10.00;99.90;;;;;;20616339;28;20054;-81
2022/10/18 21:43:39;;;;;;;4.22;1.80;;;9.90;99.90;;;;;;20611770;28;20050;-82
2022/10/18 21:53:45;;;;;;;9.55;2.35;;;9.90;99.90;;;;;;20573301;28;20053;-82
2022/10/18 22:03:49;;;;;;;2.38;1.30;;;9.70;99.90;;;;;;20573268;28;20050;-82
2022/10/18 22:13:51;;;;;;;7.80;1.70;;;9.80;99.90;;;;;;20612402;28;20058;-83
2022/10/18 22:23:55;;;;;;;5.95;1.75;;;9.70;99.90;;;;;;20600633;28;20041;-81
2022/10/18 22:33:59;;;;;;;3.80;1.30;;;9.50;99.90;;;;;;20611834;28;20078;-82
2022/10/18 22:44:00;;;;;;;4.07;1.40;;;9.40;99.90;;;;;;20649592;28;20042;-81
2022/10/18 22:54:02;;;;;;;1.80;0.80;;;9.30;99.90;;;;;;20584289;28;20054;-82
2022/10/18 23:04:03;;;;;;;4.13;2.08;;;9.30;99.90;;;;;;20651428;28;20099;-81
2022/10/18 23:14:16;;;;;;;9.75;1.88;;;9.10;99.90;;;;;;20657422;28;20045;-81
2022/10/18 23:35:05;;;;;;;2.85;1.60;;;8.90;99.90;;;;;;20681892;28;20416;-39
2022/10/18 23:45:07;;;;;;;1.75;1.10;;;8.80;99.90;;;;;;20685048;28;20132;-39
2022/10/18 23:55:08;;;;;;;2.13;1.27;;;8.80;99.90;;;;;;20674629;28;20204;-39
